コペンハーゲン の空港の天気 - METARとTAF

コペンハーゲン国際空港 ( EKCH / CPH ) - デンマーク コペンハーゲン
飛行場実況気象(Metar)
観測時間07/17 11:20 CEST (07/17 09:20 UTC)
風向・風速南 1m/s
視程10km以上
天気現象弱いしゅう雨
少しの雲 雲底高度 1220m
全天の8割程度の雲 雲底高度 2740m
気温24℃
湿度54%
気圧1013hPa
METAREKCH 170920Z 18002KT 9999 -SHRA FEW040CB BKN090 24/14 Q1013 NOSIG
過去の天気等 Google飛行場航空写真 Wunderground天気予報

過去48時間のMETAR

飛行場予報(TAF)
発表時間: 7/17 07:24 CEST (7/17 05:24 UTC)
予報対象時間: 17日8時 CEST ~ 18日8時 CEST
風向・風速北 2m/s
視程10km以上
なし
17日17時 CEST ~ 18日8時 CEST に一時的に
天気現象弱いしゅう雨
少しの積乱雲 雲底高度 1520m
TAF EKCH 170524Z 1706/1806 35004KT CAVOK
TEMPO 1715/1806 -SHRA FEW050CB